createdAt,value
2023-03-23T15:59:01.457Z,12.60
2023-03-23T16:01:31.698Z,14.40
2023-03-23T16:04:07.106Z,14.70
2023-03-23T16:06:37.780Z,15.70
2023-03-23T16:09:11.346Z,14.30
2023-03-23T16:11:40.890Z,17.60
2023-03-23T16:14:11.768Z,14.60
2023-03-23T16:16:51.191Z,15.40
2023-03-23T16:19:24.604Z,14.50
2023-03-23T16:21:54.387Z,16.20
2023-03-23T16:24:23.872Z,14.30
2023-03-23T16:26:53.398Z,15.00
2023-03-23T16:29:43.331Z,13.40
2023-03-23T16:32:12.401Z,15.30
2023-03-23T16:34:41.978Z,16.20
2023-03-23T16:37:12.243Z,18.40
2023-03-23T16:39:41.887Z,16.80
2023-03-23T16:42:11.562Z,15.40
2023-03-23T16:44:41.249Z,16.50
2023-03-23T16:47:11.254Z,15.90
2023-03-23T16:49:41.097Z,16.40
2023-03-23T16:52:10.868Z,16.00
2023-03-23T16:54:40.490Z,16.60
2023-03-23T16:57:10.066Z,16.80
2023-03-23T16:59:39.505Z,21.60
2023-03-23T17:02:13.742Z,20.10
2023-03-23T17:04:46.026Z,20.00
2023-03-23T17:07:15.537Z,22.70
2023-03-23T17:09:45.455Z,19.90
2023-03-23T17:12:14.906Z,15.70
2023-03-23T17:14:44.316Z,16.50
2023-03-23T17:17:13.767Z,15.60
2023-03-23T17:19:43.172Z,15.90
2023-03-23T17:22:12.604Z,14.60
2023-03-23T17:24:42.242Z,15.70
2023-03-23T17:27:12.710Z,15.10
2023-03-23T17:29:42.680Z,15.50
2023-03-23T17:32:12.808Z,14.40
2023-03-23T17:34:42.417Z,17.10
2023-03-23T17:37:12.041Z,15.10
2023-03-23T17:39:42.518Z,17.30
2023-03-23T17:42:13.991Z,17.20
2023-03-23T17:44:43.679Z,17.20
2023-03-23T17:47:13.480Z,17.60
2023-03-23T17:49:42.980Z,17.90
2023-03-23T17:52:12.381Z,15.80
2023-03-23T17:54:42.574Z,15.40
2023-03-23T17:57:12.370Z,16.70
2023-03-23T17:59:41.840Z,16.10
2023-03-23T18:02:14.138Z,16.30
2023-03-23T18:04:43.801Z,16.50
2023-03-23T18:07:14.783Z,18.20
2023-03-23T18:09:45.794Z,16.00
2023-03-23T18:12:15.239Z,17.00
2023-03-23T18:14:45.458Z,17.80
2023-03-23T18:17:17.377Z,17.50
2023-03-23T18:19:47.027Z,16.20
2023-03-23T18:22:16.464Z,16.10
2023-03-23T18:24:46.214Z,18.20
2023-03-23T18:27:16.077Z,15.10
2023-03-23T18:29:45.475Z,16.40
2023-03-23T18:32:14.889Z,16.90
2023-03-23T18:34:44.324Z,18.90
2023-03-23T18:37:14.003Z,19.70
2023-03-23T18:39:43.506Z,18.80
2023-03-23T18:42:13.059Z,17.00
2023-03-23T18:44:45.384Z,16.60
2023-03-23T18:47:14.783Z,16.50
2023-03-23T18:49:46.517Z,20.40
2023-03-23T18:52:16.061Z,16.40
2023-03-23T18:54:45.588Z,17.80
2023-03-23T18:57:18.150Z,18.30
2023-03-23T18:59:47.809Z,18.50
2023-03-23T19:02:19.059Z,19.50
2023-03-23T19:04:49.672Z,20.90
2023-03-23T19:07:20.057Z,19.50
2023-03-23T19:09:49.885Z,20.00
2023-03-23T19:12:19.291Z,24.20
2023-03-23T19:14:48.669Z,24.90
2023-03-23T19:17:20.042Z,27.00
2023-03-23T19:19:49.550Z,25.10
2023-03-23T19:22:21.540Z,25.30
2023-03-23T19:24:52.026Z,24.10
2023-03-23T19:27:21.972Z,25.00
2023-03-23T19:29:51.525Z,21.00
2023-03-23T19:32:21.747Z,21.60
2023-03-23T19:34:51.713Z,23.60
2023-03-23T19:37:21.684Z,22.00
2023-03-23T19:39:51.689Z,24.10
2023-03-23T19:42:21.392Z,19.30
2023-03-23T19:44:50.936Z,18.50
2023-03-23T19:47:20.543Z,22.70
2023-03-23T19:49:50.860Z,20.30
2023-03-23T19:52:21.114Z,17.50
2023-03-23T19:54:51.040Z,17.60
2023-03-23T19:57:21.195Z,20.20
2023-03-23T19:59:50.814Z,16.20
2023-03-23T20:02:20.576Z,16.70
2023-03-23T20:04:50.200Z,16.20
2023-03-23T20:07:21.304Z,18.20
2023-03-23T20:09:51.626Z,17.90
2023-03-23T20:12:21.252Z,17.10
2023-03-23T20:14:50.924Z,17.30
2023-03-23T20:17:20.591Z,17.40
2023-03-23T20:19:49.882Z,17.80
2023-03-23T20:22:19.489Z,17.10
2023-03-23T20:24:49.496Z,17.90
2023-03-23T20:27:19.850Z,19.70
2023-03-23T20:29:49.263Z,19.40
2023-03-23T20:32:18.823Z,18.10
2023-03-23T20:34:51.410Z,17.70
2023-03-23T20:37:24.168Z,18.50
2023-03-23T20:39:53.615Z,18.90
2023-03-23T20:42:23.180Z,21.20
2023-03-23T20:44:52.624Z,20.90
2023-03-23T20:47:22.106Z,19.90
2023-03-23T20:49:53.332Z,20.40
2023-03-23T20:52:26.148Z,19.80
2023-03-23T20:54:56.781Z,18.50
2023-03-23T20:57:26.358Z,21.10
2023-03-23T20:59:56.542Z,19.20
2023-03-23T21:02:26.173Z,19.20
2023-03-23T21:04:55.720Z,18.70
2023-03-23T21:07:27.602Z,20.20
2023-03-23T21:09:57.158Z,20.80
2023-03-23T21:12:27.231Z,18.20
2023-03-23T21:14:57.014Z,19.70
2023-03-23T21:17:26.415Z,19.30
2023-03-23T21:19:56.123Z,18.70
2023-03-23T21:22:25.680Z,18.50
2023-03-23T21:24:55.086Z,19.50
2023-03-23T21:27:24.649Z,21.80
2023-03-23T21:29:59.995Z,19.90
2023-03-23T21:32:29.530Z,19.50
2023-03-23T21:35:02.600Z,21.80
2023-03-23T21:37:32.751Z,21.90
2023-03-23T21:40:02.311Z,19.80
2023-03-23T21:42:32.241Z,18.20
2023-03-23T21:45:02.901Z,15.70
2023-03-23T21:47:32.441Z,18.90
2023-03-23T21:50:02.392Z,20.00
2023-03-23T21:52:33.526Z,20.00
2023-03-23T21:55:04.782Z,16.00
2023-03-23T21:57:34.477Z,20.20
2023-03-23T22:00:07.767Z,18.60
2023-03-23T22:02:37.338Z,16.20
2023-03-23T22:05:07.544Z,15.70
2023-03-23T22:07:39.281Z,20.40
2023-03-23T22:10:10.192Z,25.40
2023-03-23T22:12:40.145Z,34.70
2023-03-23T22:15:15.222Z,25.90
2023-03-23T22:17:44.714Z,21.10
2023-03-23T22:20:14.390Z,20.60
2023-03-23T22:22:43.828Z,28.90
2023-03-23T22:25:13.782Z,50.60
2023-03-23T22:27:43.425Z,35.90
2023-03-23T22:30:13.935Z,23.40
2023-03-23T22:32:43.441Z,15.00
2023-03-23T22:35:12.899Z,17.20
2023-03-23T22:37:42.451Z,19.70
2023-03-23T22:40:12.184Z,15.60
2023-03-23T22:42:41.719Z,17.90
2023-03-23T22:45:11.953Z,19.50
2023-03-23T22:47:41.525Z,16.40
2023-03-23T22:50:11.446Z,15.00
2023-03-23T22:52:41.493Z,17.90
2023-03-23T22:55:10.873Z,19.40
2023-03-23T22:57:40.417Z,17.90
2023-03-23T23:00:14.939Z,20.60
2023-03-23T23:02:44.980Z,20.30
2023-03-23T23:05:14.747Z,16.90
2023-03-23T23:07:44.223Z,20.60
2023-03-23T23:10:13.729Z,17.90
2023-03-23T23:12:43.202Z,18.40
2023-03-23T23:15:14.986Z,19.80
2023-03-23T23:17:44.408Z,19.60
2023-03-23T23:20:14.194Z,15.10
2023-03-23T23:22:44.914Z,19.40
2023-03-23T23:25:14.639Z,17.70
2023-03-23T23:27:44.106Z,15.90
2023-03-23T23:30:14.089Z,16.70
2023-03-23T23:32:44.768Z,18.50
2023-03-23T23:35:14.514Z,17.40
2023-03-23T23:37:43.966Z,16.10
2023-03-23T23:40:17.343Z,18.30
2023-03-23T23:42:50.288Z,18.70
2023-03-23T23:45:20.824Z,18.50
2023-03-23T23:47:50.570Z,13.60
2023-03-23T23:50:20.574Z,18.90
2023-03-23T23:52:50.874Z,15.20
2023-03-23T23:55:21.549Z,15.70
2023-03-23T23:57:51.929Z,17.40
